sensor_id;sensor_type;location;lat;lon;timestamp;P1;durP1;ratioP1;P2;durP2;ratioP2
76807;SDS011;65758;45.458;11.062;2023-08-06T00:01:35;1.00;;;1.00;;
76807;SDS011;65758;45.458;11.062;2023-08-06T00:04:02;2.20;;;1.60;;
76807;SDS011;65758;45.458;11.062;2023-08-06T00:06:29;1.50;;;1.20;;
76807;SDS011;65758;45.458;11.062;2023-08-06T00:08:56;3.80;;;1.40;;
76807;SDS011;65758;45.458;11.062;2023-08-06T00:11:23;4.20;;;1.40;;
76807;SDS011;65758;45.458;11.062;2023-08-06T00:13:50;2.70;;;1.20;;
76807;SDS011;65758;45.458;11.062;2023-08-06T00:16:17;3.80;;;1.20;;
76807;SDS011;65758;45.458;11.062;2023-08-06T00:18:44;2.30;;;1.20;;
76807;SDS011;65758;45.458;11.062;2023-08-06T00:21:10;2.50;;;1.50;;
76807;SDS011;65758;45.458;11.062;2023-08-06T00:23:39;1.70;;;1.30;;
76807;SDS011;65758;45.458;11.062;2023-08-06T00:26:07;1.80;;;1.20;;
76807;SDS011;65758;45.458;11.062;2023-08-06T00:28:34;3.00;;;1.50;;
76807;SDS011;65758;45.458;11.062;2023-08-06T00:31:00;1.30;;;1.20;;
76807;SDS011;65758;45.458;11.062;2023-08-06T00:33:27;2.80;;;1.30;;
76807;SDS011;65758;45.458;11.062;2023-08-06T00:35:54;3.10;;;1.40;;
76807;SDS011;65758;45.458;11.062;2023-08-06T00:38:21;2.30;;;1.30;;
76807;SDS011;65758;45.458;11.062;2023-08-06T00:40:48;2.50;;;1.30;;
76807;SDS011;65758;45.458;11.062;2023-08-06T00:43:15;1.20;;;1.10;;
76807;SDS011;65758;45.458;11.062;2023-08-06T00:45:42;1.80;;;1.30;;
76807;SDS011;65758;45.458;11.062;2023-08-06T00:48:10;2.30;;;1.30;;
76807;SDS011;65758;45.458;11.062;2023-08-06T00:50:37;3.00;;;1.30;;
76807;SDS011;65758;45.458;11.062;2023-08-06T00:53:04;1.40;;;1.30;;
76807;SDS011;65758;45.458;11.062;2023-08-06T00:55:31;1.40;;;1.30;;
76807;SDS011;65758;45.458;11.062;2023-08-06T00:57:59;2.60;;;1.40;;
76807;SDS011;65758;45.458;11.062;2023-08-06T01:00:28;3.10;;;1.50;;
76807;SDS011;65758;45.458;11.062;2023-08-06T01:02:55;1.60;;;1.50;;
76807;SDS011;65758;45.458;11.062;2023-08-06T01:05:23;2.10;;;1.20;;
76807;SDS011;65758;45.458;11.062;2023-08-06T01:10:41;1.90;;;1.50;;
76807;SDS011;65758;45.458;11.062;2023-08-06T01:13:45;2.90;;;1.10;;
76807;SDS011;65758;45.458;11.062;2023-08-06T01:16:14;2.80;;;1.40;;
76807;SDS011;65758;45.458;11.062;2023-08-06T01:18:44;1.40;;;1.30;;
76807;SDS011;65758;45.458;11.062;2023-08-06T01:21:16;2.90;;;1.30;;
76807;SDS011;65758;45.458;11.062;2023-08-06T01:23:43;2.40;;;1.30;;
76807;SDS011;65758;45.458;11.062;2023-08-06T01:26:30;3.10;;;1.30;;
76807;SDS011;65758;45.458;11.062;2023-08-06T01:29:07;1.90;;;1.00;;
76807;SDS011;65758;45.458;11.062;2023-08-06T01:31:42;2.90;;;1.40;;
76807;SDS011;65758;45.458;11.062;2023-08-06T01:34:13;1.80;;;1.20;;
76807;SDS011;65758;45.458;11.062;2023-08-06T01:36:48;2.10;;;1.40;;
76807;SDS011;65758;45.458;11.062;2023-08-06T01:39:15;1.30;;;1.00;;
76807;SDS011;65758;45.458;11.062;2023-08-06T01:41:42;1.10;;;1.10;;
76807;SDS011;65758;45.458;11.062;2023-08-06T01:44:09;1.70;;;1.20;;
76807;SDS011;65758;45.458;11.062;2023-08-06T01:46:35;3.00;;;1.30;;
76807;SDS011;65758;45.458;11.062;2023-08-06T01:49:02;1.50;;;1.10;;
76807;SDS011;65758;45.458;11.062;2023-08-06T01:51:29;4.10;;;1.20;;
76807;SDS011;65758;45.458;11.062;2023-08-06T01:53:56;1.50;;;1.00;;
76807;SDS011;65758;45.458;11.062;2023-08-06T01:56:22;1.40;;;1.30;;
76807;SDS011;65758;45.458;11.062;2023-08-06T01:58:49;1.80;;;1.40;;
76807;SDS011;65758;45.458;11.062;2023-08-06T02:01:16;1.30;;;1.10;;
76807;SDS011;65758;45.458;11.062;2023-08-06T02:03:44;4.00;;;1.30;;
76807;SDS011;65758;45.458;11.062;2023-08-06T02:06:10;2.90;;;1.10;;
76807;SDS011;65758;45.458;11.062;2023-08-06T02:08:37;1.60;;;1.20;;
76807;SDS011;65758;45.458;11.062;2023-08-06T02:11:05;1.10;;;1.00;;
76807;SDS011;65758;45.458;11.062;2023-08-06T02:13:33;1.30;;;1.20;;
76807;SDS011;65758;45.458;11.062;2023-08-06T02:16:00;1.60;;;1.10;;
76807;SDS011;65758;45.458;11.062;2023-08-06T02:18:27;1.80;;;1.30;;
76807;SDS011;65758;45.458;11.062;2023-08-06T02:20:57;3.00;;;1.30;;
76807;SDS011;65758;45.458;11.062;2023-08-06T02:23:25;2.40;;;1.50;;
76807;SDS011;65758;45.458;11.062;2023-08-06T02:26:02;3.30;;;1.50;;
76807;SDS011;65758;45.458;11.062;2023-08-06T02:28:30;2.60;;;1.30;;
76807;SDS011;65758;45.458;11.062;2023-08-06T02:30:58;2.60;;;1.30;;
76807;SDS011;65758;45.458;11.062;2023-08-06T02:33:25;1.70;;;1.10;;
76807;SDS011;65758;45.458;11.062;2023-08-06T02:36:01;0.90;;;0.90;;
76807;SDS011;65758;45.458;11.062;2023-08-06T02:38:30;3.80;;;1.20;;
76807;SDS011;65758;45.458;11.062;2023-08-06T02:40:58;3.80;;;1.00;;
76807;SDS011;65758;45.458;11.062;2023-08-06T02:43:25;2.10;;;1.20;;
76807;SDS011;65758;45.458;11.062;2023-08-06T02:45:51;3.00;;;1.10;;
76807;SDS011;65758;45.458;11.062;2023-08-06T02:48:19;1.10;;;1.10;;
76807;SDS011;65758;45.458;11.062;2023-08-06T02:50:46;2.30;;;1.10;;
76807;SDS011;65758;45.458;11.062;2023-08-06T02:53:13;4.10;;;1.30;;
76807;SDS011;65758;45.458;11.062;2023-08-06T02:55:45;2.70;;;1.00;;
76807;SDS011;65758;45.458;11.062;2023-08-06T02:58:19;1.70;;;1.20;;
76807;SDS011;65758;45.458;11.062;2023-08-06T03:01:02;3.90;;;1.30;;
76807;SDS011;65758;45.458;11.062;2023-08-06T03:03:55;1.00;;;1.00;;
76807;SDS011;65758;45.458;11.062;2023-08-06T03:06:26;1.30;;;0.90;;
76807;SDS011;65758;45.458;11.062;2023-08-06T03:08:54;1.50;;;1.00;;
76807;SDS011;65758;45.458;11.062;2023-08-06T03:11:21;1.20;;;1.00;;
76807;SDS011;65758;45.458;11.062;2023-08-06T03:13:49;0.90;;;0.90;;
76807;SDS011;65758;45.458;11.062;2023-08-06T03:16:16;1.70;;;1.10;;
76807;SDS011;65758;45.458;11.062;2023-08-06T03:18:44;3.60;;;1.10;;
76807;SDS011;65758;45.458;11.062;2023-08-06T03:21:11;1.60;;;1.20;;
76807;SDS011;65758;45.458;11.062;2023-08-06T03:23:38;1.10;;;0.80;;
76807;SDS011;65758;45.458;11.062;2023-08-06T03:26:05;1.80;;;1.00;;
76807;SDS011;65758;45.458;11.062;2023-08-06T03:28:32;2.50;;;1.20;;
76807;SDS011;65758;45.458;11.062;2023-08-06T03:31:00;1.50;;;1.10;;
76807;SDS011;65758;45.458;11.062;2023-08-06T03:33:32;2.90;;;1.10;;
76807;SDS011;65758;45.458;11.062;2023-08-06T03:36:00;2.20;;;1.10;;
76807;SDS011;65758;45.458;11.062;2023-08-06T03:38:29;2.00;;;1.20;;
76807;SDS011;65758;45.458;11.062;2023-08-06T03:40:56;1.50;;;1.20;;
76807;SDS011;65758;45.458;11.062;2023-08-06T03:43:23;5.60;;;1.10;;
76807;SDS011;65758;45.458;11.062;2023-08-06T03:45:50;2.80;;;1.20;;
76807;SDS011;65758;45.458;11.062;2023-08-06T03:48:17;2.10;;;1.00;;
76807;SDS011;65758;45.458;11.062;2023-08-06T03:50:45;3.00;;;1.10;;
76807;SDS011;65758;45.458;11.062;2023-08-06T03:53:13;3.80;;;1.00;;
76807;SDS011;65758;45.458;11.062;2023-08-06T03:55:39;1.30;;;1.20;;
76807;SDS011;65758;45.458;11.062;2023-08-06T03:58:07;1.50;;;1.20;;
76807;SDS011;65758;45.458;11.062;2023-08-06T04:00:34;4.10;;;1.50;;
76807;SDS011;65758;45.458;11.062;2023-08-06T04:03:01;2.80;;;1.20;;
76807;SDS011;65758;45.458;11.062;2023-08-06T04:05:31;3.60;;;1.40;;
76807;SDS011;65758;45.458;11.062;2023-08-06T04:07:59;2.00;;;1.50;;
76807;SDS011;65758;45.458;11.062;2023-08-06T04:10:26;4.70;;;1.20;;
76807;SDS011;65758;45.458;11.062;2023-08-06T04:12:53;3.30;;;1.10;;
76807;SDS011;65758;45.458;11.062;2023-08-06T04:15:19;2.80;;;1.10;;
76807;SDS011;65758;45.458;11.062;2023-08-06T04:17:46;5.20;;;1.20;;
76807;SDS011;65758;45.458;11.062;2023-08-06T04:20:13;1.90;;;1.20;;
76807;SDS011;65758;45.458;11.062;2023-08-06T04:22:40;1.60;;;0.90;;
76807;SDS011;65758;45.458;11.062;2023-08-06T04:25:07;3.20;;;1.20;;
76807;SDS011;65758;45.458;11.062;2023-08-06T04:27:34;2.30;;;1.00;;
76807;SDS011;65758;45.458;11.062;2023-08-06T04:30:01;1.50;;;1.10;;
76807;SDS011;65758;45.458;11.062;2023-08-06T04:32:30;0.90;;;0.90;;
76807;SDS011;65758;45.458;11.062;2023-08-06T04:34:56;1.00;;;1.00;;
76807;SDS011;65758;45.458;11.062;2023-08-06T04:37:23;1.60;;;1.10;;
76807;SDS011;65758;45.458;11.062;2023-08-06T04:39:50;1.40;;;1.00;;
76807;SDS011;65758;45.458;11.062;2023-08-06T04:42:17;1.50;;;1.10;;
76807;SDS011;65758;45.458;11.062;2023-08-06T04:44:44;2.00;;;1.40;;
76807;SDS011;65758;45.458;11.062;2023-08-06T04:47:11;1.80;;;1.20;;
76807;SDS011;65758;45.458;11.062;2023-08-06T04:49:37;2.10;;;1.00;;
76807;SDS011;65758;45.458;11.062;2023-08-06T04:52:04;1.60;;;1.20;;
76807;SDS011;65758;45.458;11.062;2023-08-06T04:54:32;1.10;;;1.00;;
76807;SDS011;65758;45.458;11.062;2023-08-06T04:56:58;3.70;;;1.10;;
76807;SDS011;65758;45.458;11.062;2023-08-06T04:59:25;1.60;;;0.90;;
76807;SDS011;65758;45.458;11.062;2023-08-06T05:01:52;2.70;;;1.10;;
76807;SDS011;65758;45.458;11.062;2023-08-06T05:04:19;3.40;;;1.00;;
76807;SDS011;65758;45.458;11.062;2023-08-06T05:06:46;1.30;;;1.20;;
76807;SDS011;65758;45.458;11.062;2023-08-06T05:09:14;3.40;;;1.30;;
76807;SDS011;65758;45.458;11.062;2023-08-06T05:11:41;0.80;;;0.80;;
76807;SDS011;65758;45.458;11.062;2023-08-06T05:14:08;1.20;;;1.10;;
76807;SDS011;65758;45.458;11.062;2023-08-06T05:16:34;2.20;;;1.50;;
76807;SDS011;65758;45.458;11.062;2023-08-06T05:19:01;2.80;;;1.10;;
76807;SDS011;65758;45.458;11.062;2023-08-06T05:21:28;0.80;;;0.80;;
76807;SDS011;65758;45.458;11.062;2023-08-06T05:23:55;2.10;;;1.20;;
76807;SDS011;65758;45.458;11.062;2023-08-06T05:26:21;3.20;;;1.60;;
76807;SDS011;65758;45.458;11.062;2023-08-06T05:28:48;1.50;;;1.20;;
76807;SDS011;65758;45.458;11.062;2023-08-06T05:31:15;2.40;;;1.60;;
76807;SDS011;65758;45.458;11.062;2023-08-06T05:33:42;2.20;;;1.50;;
76807;SDS011;65758;45.458;11.062;2023-08-06T05:36:09;2.60;;;1.40;;
76807;SDS011;65758;45.458;11.062;2023-08-06T05:38:36;1.60;;;1.40;;
76807;SDS011;65758;45.458;11.062;2023-08-06T05:41:02;1.50;;;1.40;;
76807;SDS011;65758;45.458;11.062;2023-08-06T05:43:30;2.10;;;1.50;;
76807;SDS011;65758;45.458;11.062;2023-08-06T05:45:57;1.50;;;1.40;;
76807;SDS011;65758;45.458;11.062;2023-08-06T05:48:24;3.60;;;1.80;;
76807;SDS011;65758;45.458;11.062;2023-08-06T05:50:51;2.50;;;2.10;;
76807;SDS011;65758;45.458;11.062;2023-08-06T05:53:18;2.30;;;2.10;;
76807;SDS011;65758;45.458;11.062;2023-08-06T05:55:45;3.00;;;2.10;;
76807;SDS011;65758;45.458;11.062;2023-08-06T05:58:12;4.40;;;2.30;;
76807;SDS011;65758;45.458;11.062;2023-08-06T06:00:39;2.30;;;2.00;;
76807;SDS011;65758;45.458;11.062;2023-08-06T06:03:06;2.00;;;1.60;;
76807;SDS011;65758;45.458;11.062;2023-08-06T06:05:32;4.10;;;2.00;;
76807;SDS011;65758;45.458;11.062;2023-08-06T06:07:59;4.50;;;2.00;;
76807;SDS011;65758;45.458;11.062;2023-08-06T06:10:26;3.60;;;1.80;;
76807;SDS011;65758;45.458;11.062;2023-08-06T06:12:53;2.50;;;1.90;;
76807;SDS011;65758;45.458;11.062;2023-08-06T06:15:19;4.10;;;2.20;;
76807;SDS011;65758;45.458;11.062;2023-08-06T06:17:46;3.50;;;2.40;;
76807;SDS011;65758;45.458;11.062;2023-08-06T06:20:13;2.70;;;2.30;;
76807;SDS011;65758;45.458;11.062;2023-08-06T06:22:40;6.70;;;2.30;;
76807;SDS011;65758;45.458;11.062;2023-08-06T06:25:07;3.10;;;2.20;;
76807;SDS011;65758;45.458;11.062;2023-08-06T06:27:34;3.40;;;2.50;;
76807;SDS011;65758;45.458;11.062;2023-08-06T06:30:00;3.60;;;2.40;;
76807;SDS011;65758;45.458;11.062;2023-08-06T06:32:27;2.30;;;2.10;;
76807;SDS011;65758;45.458;11.062;2023-08-06T06:34:54;4.10;;;2.40;;
76807;SDS011;65758;45.458;11.062;2023-08-06T06:37:21;3.70;;;2.60;;
76807;SDS011;65758;45.458;11.062;2023-08-06T06:39:48;2.80;;;2.40;;
76807;SDS011;65758;45.458;11.062;2023-08-06T06:42:15;6.10;;;2.60;;
76807;SDS011;65758;45.458;11.062;2023-08-06T06:44:43;2.50;;;2.30;;
76807;SDS011;65758;45.458;11.062;2023-08-06T06:47:10;2.90;;;2.70;;
76807;SDS011;65758;45.458;11.062;2023-08-06T06:49:37;2.90;;;2.60;;
76807;SDS011;65758;45.458;11.062;2023-08-06T06:52:04;4.40;;;2.50;;
76807;SDS011;65758;45.458;11.062;2023-08-06T06:54:31;3.30;;;3.00;;
76807;SDS011;65758;45.458;11.062;2023-08-06T06:56:58;7.10;;;2.90;;
76807;SDS011;65758;45.458;11.062;2023-08-06T06:59:25;4.50;;;2.90;;
76807;SDS011;65758;45.458;11.062;2023-08-06T07:01:52;3.50;;;2.60;;
76807;SDS011;65758;45.458;11.062;2023-08-06T07:04:19;4.40;;;3.00;;
76807;SDS011;65758;45.458;11.062;2023-08-06T07:06:47;5.90;;;2.90;;
76807;SDS011;65758;45.458;11.062;2023-08-06T07:09:14;3.10;;;2.70;;
76807;SDS011;65758;45.458;11.062;2023-08-06T07:11:40;6.80;;;3.20;;
76807;SDS011;65758;45.458;11.062;2023-08-06T07:14:10;3.30;;;2.70;;
76807;SDS011;65758;45.458;11.062;2023-08-06T07:16:37;5.00;;;2.90;;
76807;SDS011;65758;45.458;11.062;2023-08-06T07:19:03;5.10;;;3.20;;
76807;SDS011;65758;45.458;11.062;2023-08-06T07:21:31;3.20;;;2.90;;
76807;SDS011;65758;45.458;11.062;2023-08-06T07:23:59;3.40;;;3.10;;
76807;SDS011;65758;45.458;11.062;2023-08-06T07:26:26;3.90;;;2.90;;
76807;SDS011;65758;45.458;11.062;2023-08-06T07:28:53;4.20;;;3.00;;
76807;SDS011;65758;45.458;11.062;2023-08-06T07:31:20;3.20;;;2.70;;
76807;SDS011;65758;45.458;11.062;2023-08-06T07:33:46;3.40;;;2.80;;
76807;SDS011;65758;45.458;11.062;2023-08-06T07:36:13;3.40;;;2.90;;
76807;SDS011;65758;45.458;11.062;2023-08-06T07:38:41;4.80;;;2.80;;
76807;SDS011;65758;45.458;11.062;2023-08-06T07:41:08;5.10;;;2.80;;
76807;SDS011;65758;45.458;11.062;2023-08-06T07:43:35;3.00;;;2.70;;
76807;SDS011;65758;45.458;11.062;2023-08-06T07:46:03;2.80;;;2.40;;
76807;SDS011;65758;45.458;11.062;2023-08-06T07:48:30;4.80;;;2.80;;
76807;SDS011;65758;45.458;11.062;2023-08-06T07:50:57;4.10;;;2.90;;
76807;SDS011;65758;45.458;11.062;2023-08-06T07:53:24;3.40;;;2.70;;
76807;SDS011;65758;45.458;11.062;2023-08-06T07:58:23;2.50;;;2.20;;
76807;SDS011;65758;45.458;11.062;2023-08-06T08:00:52;5.50;;;2.50;;
76807;SDS011;65758;45.458;11.062;2023-08-06T08:03:19;2.80;;;2.20;;
76807;SDS011;65758;45.458;11.062;2023-08-06T08:05:46;5.00;;;2.30;;
76807;SDS011;65758;45.458;11.062;2023-08-06T08:08:13;6.10;;;2.60;;
76807;SDS011;65758;45.458;11.062;2023-08-06T08:10:42;2.20;;;2.00;;
76807;SDS011;65758;45.458;11.062;2023-08-06T08:13:09;4.10;;;2.00;;
76807;SDS011;65758;45.458;11.062;2023-08-06T08:15:38;2.80;;;2.00;;
76807;SDS011;65758;45.458;11.062;2023-08-06T08:18:04;2.30;;;2.10;;
76807;SDS011;65758;45.458;11.062;2023-08-06T08:20:31;3.80;;;2.10;;
76807;SDS011;65758;45.458;11.062;2023-08-06T08:22:59;2.10;;;2.00;;
76807;SDS011;65758;45.458;11.062;2023-08-06T08:25:27;3.00;;;2.20;;
76807;SDS011;65758;45.458;11.062;2023-08-06T08:40:01;2.60;;;2.10;;
76807;SDS011;65758;45.458;11.062;2023-08-06T08:42:28;2.30;;;2.00;;
76807;SDS011;65758;45.458;11.062;2023-08-06T08:44:56;2.10;;;2.00;;
76807;SDS011;65758;45.458;11.062;2023-08-06T08:47:24;3.20;;;2.20;;
76807;SDS011;65758;45.458;11.062;2023-08-06T08:49:52;3.20;;;2.20;;
76807;SDS011;65758;45.458;11.062;2023-08-06T08:52:21;2.40;;;2.00;;
76807;SDS011;65758;45.458;11.062;2023-08-06T08:54:50;2.00;;;1.70;;
76807;SDS011;65758;45.458;11.062;2023-08-06T08:57:19;2.20;;;1.80;;
76807;SDS011;65758;45.458;11.062;2023-08-06T08:59:47;1.80;;;1.70;;
76807;SDS011;65758;45.458;11.062;2023-08-06T09:02:14;1.90;;;1.70;;
76807;SDS011;65758;45.458;11.062;2023-08-06T09:04:42;2.70;;;1.70;;
76807;SDS011;65758;45.458;11.062;2023-08-06T09:07:11;2.20;;;1.90;;
76807;SDS011;65758;45.458;11.062;2023-08-06T09:09:41;2.70;;;1.80;;
76807;SDS011;65758;45.458;11.062;2023-08-06T09:12:15;2.30;;;2.10;;
76807;SDS011;65758;45.458;11.062;2023-08-06T09:14:43;3.50;;;1.80;;
76807;SDS011;65758;45.458;11.062;2023-08-06T09:17:10;3.50;;;1.20;;
76807;SDS011;65758;45.458;11.062;2023-08-06T09:19:37;1.30;;;1.00;;
76807;SDS011;65758;45.458;11.062;2023-08-06T09:22:04;3.00;;;1.00;;
76807;SDS011;65758;45.458;11.062;2023-08-06T09:24:38;1.80;;;1.10;;
76807;SDS011;65758;45.458;11.062;2023-08-06T09:27:10;2.00;;;1.50;;
76807;SDS011;65758;45.458;11.062;2023-08-06T09:29:42;1.20;;;1.10;;
76807;SDS011;65758;45.458;11.062;2023-08-06T09:32:09;3.20;;;1.30;;
76807;SDS011;65758;45.458;11.062;2023-08-06T09:34:38;1.10;;;1.10;;
76807;SDS011;65758;45.458;11.062;2023-08-06T09:37:08;1.00;;;1.00;;
76807;SDS011;65758;45.458;11.062;2023-08-06T09:39:38;2.10;;;1.50;;
76807;SDS011;65758;45.458;11.062;2023-08-06T09:42:06;2.00;;;1.40;;
76807;SDS011;65758;45.458;11.062;2023-08-06T09:44:33;1.10;;;1.00;;
76807;SDS011;65758;45.458;11.062;2023-08-06T09:47:02;1.60;;;1.50;;
76807;SDS011;65758;45.458;11.062;2023-08-06T09:51:59;2.00;;;1.50;;
76807;SDS011;65758;45.458;11.062;2023-08-06T09:54:27;1.70;;;1.40;;
76807;SDS011;65758;45.458;11.062;2023-08-06T09:56:55;1.60;;;1.50;;
76807;SDS011;65758;45.458;11.062;2023-08-06T09:59:23;1.50;;;1.40;;
76807;SDS011;65758;45.458;11.062;2023-08-06T10:01:50;1.50;;;1.40;;
76807;SDS011;65758;45.458;11.062;2023-08-06T10:04:19;1.80;;;1.30;;
76807;SDS011;65758;45.458;11.062;2023-08-06T10:06:50;1.40;;;1.30;;
76807;SDS011;65758;45.458;11.062;2023-08-06T10:09:19;2.40;;;1.50;;
76807;SDS011;65758;45.458;11.062;2023-08-06T10:11:48;2.00;;;1.50;;
76807;SDS011;65758;45.458;11.062;2023-08-06T10:17:15;2.60;;;1.50;;
76807;SDS011;65758;45.458;11.062;2023-08-06T10:19:43;3.00;;;1.60;;
76807;SDS011;65758;45.458;11.062;2023-08-06T10:22:12;1.30;;;1.20;;
76807;SDS011;65758;45.458;11.062;2023-08-06T10:27:21;1.60;;;1.20;;
76807;SDS011;65758;45.458;11.062;2023-08-06T10:29:48;1.60;;;1.20;;
76807;SDS011;65758;45.458;11.062;2023-08-06T10:32:18;1.40;;;1.30;;
76807;SDS011;65758;45.458;11.062;2023-08-06T10:34:57;2.50;;;1.50;;
76807;SDS011;65758;45.458;11.062;2023-08-06T10:37:35;1.90;;;1.20;;
76807;SDS011;65758;45.458;11.062;2023-08-06T10:40:03;1.90;;;1.50;;
76807;SDS011;65758;45.458;11.062;2023-08-06T10:42:34;1.60;;;1.40;;
76807;SDS011;65758;45.458;11.062;2023-08-06T10:45:17;2.10;;;1.10;;
76807;SDS011;65758;45.458;11.062;2023-08-06T10:47:45;1.30;;;1.20;;
76807;SDS011;65758;45.458;11.062;2023-08-06T10:50:16;1.50;;;1.40;;
76807;SDS011;65758;45.458;11.062;2023-08-06T10:52:44;1.80;;;1.30;;
76807;SDS011;65758;45.458;11.062;2023-08-06T10:55:12;1.50;;;1.40;;
76807;SDS011;65758;45.458;11.062;2023-08-06T10:57:50;1.50;;;1.40;;
76807;SDS011;65758;45.458;11.062;2023-08-06T11:00:17;2.00;;;1.30;;
76807;SDS011;65758;45.458;11.062;2023-08-06T11:02:44;1.60;;;1.50;;
76807;SDS011;65758;45.458;11.062;2023-08-06T11:05:13;2.00;;;1.40;;
76807;SDS011;65758;45.458;11.062;2023-08-06T11:07:40;1.50;;;1.30;;
76807;SDS011;65758;45.458;11.062;2023-08-06T11:10:08;1.40;;;1.30;;
76807;SDS011;65758;45.458;11.062;2023-08-06T11:12:36;1.60;;;1.40;;
76807;SDS011;65758;45.458;11.062;2023-08-06T11:15:04;1.90;;;1.30;;
76807;SDS011;65758;45.458;11.062;2023-08-06T11:17:32;2.20;;;1.50;;
76807;SDS011;65758;45.458;11.062;2023-08-06T11:20:00;2.00;;;1.40;;
76807;SDS011;65758;45.458;11.062;2023-08-06T11:22:28;1.50;;;1.40;;
76807;SDS011;65758;45.458;11.062;2023-08-06T11:24:55;2.30;;;1.30;;
76807;SDS011;65758;45.458;11.062;2023-08-06T11:27:22;1.50;;;1.30;;
76807;SDS011;65758;45.458;11.062;2023-08-06T11:29:49;5.10;;;1.40;;
76807;SDS011;65758;45.458;11.062;2023-08-06T11:32:16;2.40;;;1.60;;
76807;SDS011;65758;45.458;11.062;2023-08-06T11:34:43;1.80;;;1.60;;
76807;SDS011;65758;45.458;11.062;2023-08-06T11:37:10;1.90;;;1.50;;
76807;SDS011;65758;45.458;11.062;2023-08-06T11:39:38;1.80;;;1.30;;
76807;SDS011;65758;45.458;11.062;2023-08-06T11:42:05;1.60;;;1.50;;
76807;SDS011;65758;45.458;11.062;2023-08-06T11:44:34;1.80;;;1.70;;
76807;SDS011;65758;45.458;11.062;2023-08-06T11:47:03;3.20;;;2.20;;
76807;SDS011;65758;45.458;11.062;2023-08-06T11:49:48;2.40;;;1.60;;
76807;SDS011;65758;45.458;11.062;2023-08-06T11:54:44;1.30;;;1.30;;
76807;SDS011;65758;45.458;11.062;2023-08-06T11:57:11;1.70;;;1.60;;
76807;SDS011;65758;45.458;11.062;2023-08-06T11:59:41;1.20;;;1.20;;
76807;SDS011;65758;45.458;11.062;2023-08-06T12:02:08;1.20;;;1.20;;
76807;SDS011;65758;45.458;11.062;2023-08-06T12:07:31;1.30;;;1.10;;
76807;SDS011;65758;45.458;11.062;2023-08-06T12:09:59;1.50;;;1.40;;
76807;SDS011;65758;45.458;11.062;2023-08-06T12:12:26;1.40;;;1.30;;
76807;SDS011;65758;45.458;11.062;2023-08-06T12:14:54;1.10;;;1.00;;
76807;SDS011;65758;45.458;11.062;2023-08-06T12:17:22;1.00;;;1.00;;
76807;SDS011;65758;45.458;11.062;2023-08-06T12:19:51;1.20;;;0.90;;
76807;SDS011;65758;45.458;11.062;2023-08-06T13:03:24;0.60;;;0.60;;
76807;SDS011;65758;45.458;11.062;2023-08-06T13:05:51;0.70;;;0.70;;
76807;SDS011;65758;45.458;11.062;2023-08-06T13:08:18;1.10;;;0.70;;
76807;SDS011;65758;45.458;11.062;2023-08-06T13:10:45;0.70;;;0.70;;
76807;SDS011;65758;45.458;11.062;2023-08-06T13:13:11;0.70;;;0.70;;
76807;SDS011;65758;45.458;11.062;2023-08-06T13:15:38;0.50;;;0.50;;
76807;SDS011;65758;45.458;11.062;2023-08-06T13:18:05;1.40;;;0.60;;
76807;SDS011;65758;45.458;11.062;2023-08-06T13:20:32;0.80;;;0.80;;
76807;SDS011;65758;45.458;11.062;2023-08-06T13:22:59;0.80;;;0.80;;
76807;SDS011;65758;45.458;11.062;2023-08-06T13:25:27;0.70;;;0.70;;
76807;SDS011;65758;45.458;11.062;2023-08-06T13:27:55;0.80;;;0.80;;
76807;SDS011;65758;45.458;11.062;2023-08-06T13:30:22;1.30;;;1.00;;
76807;SDS011;65758;45.458;11.062;2023-08-06T13:32:49;1.20;;;0.70;;
76807;SDS011;65758;45.458;11.062;2023-08-06T13:35:16;0.90;;;0.90;;
76807;SDS011;65758;45.458;11.062;2023-08-06T13:37:43;0.90;;;0.70;;
76807;SDS011;65758;45.458;11.062;2023-08-06T13:40:10;1.70;;;0.90;;
76807;SDS011;65758;45.458;11.062;2023-08-06T13:42:37;1.60;;;0.60;;
76807;SDS011;65758;45.458;11.062;2023-08-06T13:45:04;0.80;;;0.80;;
76807;SDS011;65758;45.458;11.062;2023-08-06T13:47:32;0.90;;;0.80;;
76807;SDS011;65758;45.458;11.062;2023-08-06T13:50:00;0.80;;;0.70;;
76807;SDS011;65758;45.458;11.062;2023-08-06T13:52:26;1.20;;;0.90;;
76807;SDS011;65758;45.458;11.062;2023-08-06T13:54:53;1.40;;;0.70;;
76807;SDS011;65758;45.458;11.062;2023-08-06T13:57:20;0.60;;;0.60;;
76807;SDS011;65758;45.458;11.062;2023-08-06T13:59:47;0.70;;;0.50;;
76807;SDS011;65758;45.458;11.062;2023-08-06T14:02:14;1.20;;;0.70;;
76807;SDS011;65758;45.458;11.062;2023-08-06T14:04:41;0.70;;;0.70;;
76807;SDS011;65758;45.458;11.062;2023-08-06T14:07:08;0.60;;;0.60;;
76807;SDS011;65758;45.458;11.062;2023-08-06T14:09:34;0.60;;;0.60;;
76807;SDS011;65758;45.458;11.062;2023-08-06T14:12:01;0.50;;;0.50;;
76807;SDS011;65758;45.458;11.062;2023-08-06T14:14:29;0.50;;;0.50;;
76807;SDS011;65758;45.458;11.062;2023-08-06T14:16:56;0.80;;;0.60;;
76807;SDS011;65758;45.458;11.062;2023-08-06T14:19:24;0.60;;;0.60;;
76807;SDS011;65758;45.458;11.062;2023-08-06T14:21:51;0.70;;;0.70;;
76807;SDS011;65758;45.458;11.062;2023-08-06T14:24:18;0.90;;;0.70;;
76807;SDS011;65758;45.458;11.062;2023-08-06T14:26:45;0.80;;;0.80;;
76807;SDS011;65758;45.458;11.062;2023-08-06T14:29:12;0.60;;;0.60;;
76807;SDS011;65758;45.458;11.062;2023-08-06T18:42:01;0.90;;;0.90;;
76807;SDS011;65758;45.458;11.062;2023-08-06T18:44:28;1.30;;;1.10;;
76807;SDS011;65758;45.458;11.062;2023-08-06T18:46:56;1.00;;;0.90;;
76807;SDS011;65758;45.458;11.062;2023-08-06T18:49:23;1.30;;;0.90;;
76807;SDS011;65758;45.458;11.062;2023-08-06T18:51:50;1.50;;;1.20;;
76807;SDS011;65758;45.458;11.062;2023-08-06T18:54:17;4.80;;;1.50;;
76807;SDS011;65758;45.458;11.062;2023-08-06T18:56:44;1.40;;;1.20;;
76807;SDS011;65758;45.458;11.062;2023-08-06T18:59:10;1.50;;;1.10;;
76807;SDS011;65758;45.458;11.062;2023-08-06T19:01:39;2.70;;;1.20;;
76807;SDS011;65758;45.458;11.062;2023-08-06T19:04:05;1.70;;;1.10;;
76807;SDS011;65758;45.458;11.062;2023-08-06T19:06:32;1.70;;;1.10;;
76807;SDS011;65758;45.458;11.062;2023-08-06T19:08:59;2.20;;;1.20;;
76807;SDS011;65758;45.458;11.062;2023-08-06T19:11:26;1.00;;;1.00;;
76807;SDS011;65758;45.458;11.062;2023-08-06T19:13:53;1.40;;;0.90;;
76807;SDS011;65758;45.458;11.062;2023-08-06T19:16:20;1.70;;;0.90;;
76807;SDS011;65758;45.458;11.062;2023-08-06T19:18:47;0.90;;;0.90;;
76807;SDS011;65758;45.458;11.062;2023-08-06T19:21:15;0.90;;;0.80;;
76807;SDS011;65758;45.458;11.062;2023-08-06T19:23:42;0.90;;;0.70;;
76807;SDS011;65758;45.458;11.062;2023-08-06T19:26:09;0.70;;;0.60;;
76807;SDS011;65758;45.458;11.062;2023-08-06T19:28:36;1.40;;;0.80;;
76807;SDS011;65758;45.458;11.062;2023-08-06T19:31:03;1.60;;;0.70;;
76807;SDS011;65758;45.458;11.062;2023-08-06T19:33:30;1.60;;;0.70;;
76807;SDS011;65758;45.458;11.062;2023-08-06T19:35:57;0.90;;;0.80;;
76807;SDS011;65758;45.458;11.062;2023-08-06T19:38:24;1.00;;;0.90;;
76807;SDS011;65758;45.458;11.062;2023-08-06T19:41:01;0.80;;;0.80;;
76807;SDS011;65758;45.458;11.062;2023-08-06T19:43:34;0.70;;;0.70;;
76807;SDS011;65758;45.458;11.062;2023-08-06T19:46:01;0.60;;;0.60;;
76807;SDS011;65758;45.458;11.062;2023-08-06T19:48:30;1.40;;;0.80;;
76807;SDS011;65758;45.458;11.062;2023-08-06T19:50:59;1.10;;;0.50;;
76807;SDS011;65758;45.458;11.062;2023-08-06T19:53:27;1.20;;;0.70;;
76807;SDS011;65758;45.458;11.062;2023-08-06T19:56:03;1.10;;;0.70;;
76807;SDS011;65758;45.458;11.062;2023-08-06T19:58:31;0.80;;;0.80;;
76807;SDS011;65758;45.458;11.062;2023-08-06T20:01:00;2.80;;;0.50;;